Terminal Aerodrome Forecast
Issued by NWS Jackson, MS

Home | Current Version | Previous Version | Text Only | Print | Product List | Glossary On
Versions: 1 2 3 4 5 6 7 8 9 10 11 12 13 14 15 16
000
FTUS44 KJAN 241731
TAFGWO
TAF
KGWO 241731Z 2418/2518 21015G25KT P6SM SCT035
     FM250000 25008KT P6SM VCTS BKN040CB
     FM250400 30010KT P6SM SCT040=

USA.gov is the U.S. government's official web portal to all federal, state and local government web resources and services.